createdAt,value
2023-03-15T00:01:27.547Z,5.97
2023-03-15T00:03:56.541Z,6.40
2023-03-15T00:06:22.823Z,7.70
2023-03-15T00:08:49.040Z,7.57
2023-03-15T00:11:16.097Z,7.57
2023-03-15T00:13:42.890Z,7.70
2023-03-15T00:16:09.254Z,7.50
2023-03-15T00:18:35.473Z,7.13
2023-03-15T00:21:01.686Z,7.07
2023-03-15T00:23:28.942Z,5.70
2023-03-15T00:25:55.206Z,5.78
2023-03-15T00:28:21.625Z,6.13
2023-03-15T00:30:47.959Z,5.55
2023-03-15T00:33:14.848Z,4.90
2023-03-15T00:35:42.367Z,5.20
2023-03-15T00:38:08.881Z,5.18
2023-03-15T00:40:36.670Z,4.70
2023-03-15T00:43:03.353Z,4.55
2023-03-15T00:45:29.577Z,4.63
2023-03-15T00:47:55.993Z,4.65
2023-03-15T00:50:22.796Z,5.22
2023-03-15T00:52:49.347Z,5.22
2023-03-15T00:55:17.111Z,5.35
2023-03-15T00:57:44.742Z,5.35
2023-03-15T01:00:12.743Z,5.57
2023-03-15T01:02:38.977Z,5.43
2023-03-15T01:05:06.249Z,5.32
2023-03-15T01:07:35.658Z,5.70
2023-03-15T01:10:02.680Z,6.05
2023-03-15T01:12:29.602Z,5.82
2023-03-15T01:14:55.910Z,5.13
2023-03-15T01:17:22.169Z,5.78
2023-03-15T01:19:48.412Z,6.50
2023-03-15T01:22:14.721Z,6.07
2023-03-15T01:24:40.939Z,6.07
2023-03-15T01:27:07.141Z,6.93
2023-03-15T01:29:33.343Z,6.78
2023-03-15T01:31:59.547Z,7.30
2023-03-15T01:34:25.786Z,5.90
2023-03-15T01:36:55.001Z,6.97
2023-03-15T01:39:21.229Z,6.40
2023-03-15T01:41:47.675Z,6.38
2023-03-15T01:44:14.818Z,5.90
2023-03-15T01:46:41.271Z,6.35
2023-03-15T01:49:12.392Z,5.82
2023-03-15T01:51:46.836Z,6.72
2023-03-15T01:54:15.397Z,6.22
2023-03-15T01:56:43.911Z,6.03
2023-03-15T01:59:12.905Z,6.15
2023-03-15T02:01:45.562Z,5.80
2023-03-15T02:04:15.696Z,5.85
2023-03-15T02:06:46.604Z,6.05
2023-03-15T02:09:14.944Z,6.07
2023-03-15T02:11:41.953Z,6.80
2023-03-15T02:14:09.634Z,6.40
2023-03-15T02:16:35.937Z,5.50
2023-03-15T02:19:02.212Z,6.22
2023-03-15T02:21:52.366Z,5.50
2023-03-15T02:24:33.218Z,5.20
2023-03-15T02:26:59.494Z,5.22
2023-03-15T02:29:26.655Z,5.38
2023-03-15T02:31:53.258Z,5.03
2023-03-15T02:34:19.501Z,4.63
2023-03-15T02:36:45.693Z,5.03
2023-03-15T02:39:15.872Z,5.45
2023-03-15T02:41:43.609Z,4.70
2023-03-15T02:44:18.882Z,4.30
2023-03-15T02:46:46.072Z,3.78
2023-03-15T02:49:13.317Z,4.10
2023-03-15T02:51:39.555Z,4.22
2023-03-15T02:54:05.762Z,3.75
2023-03-15T02:56:33.370Z,4.18
2023-03-15T02:58:59.887Z,4.80
2023-03-15T03:01:26.097Z,4.10
2023-03-15T03:03:52.328Z,4.10
2023-03-15T03:06:18.764Z,4.05
2023-03-15T03:08:47.429Z,4.35
2023-03-15T03:11:14.826Z,4.60
2023-03-15T03:13:42.294Z,4.25
2023-03-15T03:16:08.991Z,4.18
2023-03-15T03:18:35.914Z,4.57
2023-03-15T03:21:05.620Z,4.22
2023-03-15T03:23:33.798Z,4.35
2023-03-15T03:26:00.721Z,4.50
2023-03-15T03:28:28.156Z,4.97
2023-03-15T03:30:55.379Z,5.88
2023-03-15T03:33:22.423Z,5.63
2023-03-15T03:35:48.869Z,6.05
2023-03-15T03:38:15.362Z,5.47
2023-03-15T03:40:41.736Z,5.65
2023-03-15T03:43:08.485Z,5.68
2023-03-15T03:45:34.924Z,5.75
2023-03-15T03:48:01.195Z,6.28
2023-03-15T03:50:27.554Z,5.90
2023-03-15T03:52:53.875Z,6.03
2023-03-15T03:55:24.913Z,5.97
2023-03-15T03:57:51.891Z,5.78
2023-03-15T04:00:18.583Z,5.90
2023-03-15T04:02:44.905Z,6.18
2023-03-15T04:05:11.469Z,5.85
2023-03-15T04:07:38.081Z,5.97
2023-03-15T04:10:04.961Z,5.53
2023-03-15T04:12:31.332Z,5.53
2023-03-15T04:14:57.666Z,5.88
2023-03-15T04:17:23.890Z,5.78
2023-03-15T04:19:50.157Z,5.70
2023-03-15T04:22:16.431Z,6.05
2023-03-15T04:24:42.622Z,5.60
2023-03-15T04:27:09.433Z,6.32
2023-03-15T04:29:35.613Z,6.65
2023-03-15T04:32:01.826Z,5.95
2023-03-15T04:34:29.157Z,5.75
2023-03-15T04:36:55.716Z,6.00
2023-03-15T04:39:21.950Z,6.18
2023-03-15T04:41:48.148Z,5.82
2023-03-15T04:44:17.350Z,6.55
2023-03-15T04:46:43.711Z,6.10
2023-03-15T04:49:09.964Z,6.45
2023-03-15T04:51:36.245Z,7.05
2023-03-15T04:54:02.930Z,6.38
2023-03-15T04:56:29.933Z,6.10
2023-03-15T04:58:56.157Z,6.30
2023-03-15T05:01:25.285Z,5.95
2023-03-15T05:03:51.506Z,6.15
2023-03-15T05:06:17.710Z,5.95
2023-03-15T05:08:45.201Z,6.07
2023-03-15T05:11:11.496Z,6.35
2023-03-15T05:13:37.747Z,5.63
2023-03-15T05:16:04.019Z,6.10
2023-03-15T05:18:30.257Z,6.57
2023-03-15T05:20:56.492Z,6.60
2023-03-15T05:23:23.392Z,6.13
2023-03-15T05:25:55.772Z,6.13
2023-03-15T05:28:23.547Z,6.10
2023-03-15T05:30:51.965Z,6.60
2023-03-15T05:33:18.693Z,6.22
2023-03-15T05:35:45.143Z,7.13
2023-03-15T05:38:14.466Z,7.07
2023-03-15T05:40:44.010Z,7.47
2023-03-15T05:43:10.231Z,7.03
2023-03-15T05:45:36.795Z,7.05
2023-03-15T05:48:03.143Z,7.63
2023-03-15T05:50:29.669Z,7.65
2023-03-15T05:52:56.981Z,7.72
2023-03-15T05:55:23.828Z,7.35
2023-03-15T05:57:50.101Z,8.43
2023-03-15T06:00:16.720Z,7.53
2023-03-15T06:02:43.836Z,8.20
2023-03-15T06:05:10.059Z,7.50
2023-03-15T06:07:36.279Z,7.30
2023-03-15T06:10:02.994Z,7.97
2023-03-15T06:12:29.193Z,7.60
2023-03-15T06:14:55.391Z,7.03
2023-03-15T06:17:21.631Z,7.22
2023-03-15T06:19:47.835Z,8.20
2023-03-15T06:22:14.040Z,8.25
2023-03-15T06:24:40.472Z,8.13
2023-03-15T06:27:06.711Z,9.20
2023-03-15T06:29:32.956Z,9.40
2023-03-15T06:31:59.206Z,8.85
2023-03-15T06:34:25.473Z,10.32
2023-03-15T06:36:52.428Z,10.10
2023-03-15T06:39:18.641Z,10.60
2023-03-15T06:41:44.858Z,9.80
2023-03-15T06:44:11.228Z,10.32
2023-03-15T06:46:37.559Z,10.15
2023-03-15T06:49:03.848Z,10.05
2023-03-15T06:51:30.040Z,10.50
2023-03-15T06:53:56.258Z,10.68
2023-03-15T06:56:22.522Z,10.88
2023-03-15T06:58:48.727Z,10.80
2023-03-15T07:01:15.408Z,10.45
2023-03-15T07:03:42.036Z,11.27
2023-03-15T07:06:08.597Z,11.70
2023-03-15T07:08:34.832Z,12.15
2023-03-15T07:11:02.938Z,11.60
2023-03-15T07:13:29.195Z,12.70
2023-03-15T07:15:56.381Z,12.38
2023-03-15T07:18:22.748Z,13.68
2023-03-15T07:20:55.550Z,12.63
2023-03-15T07:23:21.754Z,12.30
2023-03-15T07:25:54.948Z,14.05
2023-03-15T07:28:22.097Z,14.85
2023-03-15T07:30:58.601Z,14.25
2023-03-15T07:33:25.547Z,14.55
2023-03-15T07:35:53.472Z,13.93
2023-03-15T07:38:20.741Z,14.43
2023-03-15T07:40:46.956Z,16.00
2023-03-15T07:43:13.212Z,15.10
2023-03-15T07:45:39.554Z,15.63
2023-03-15T07:48:06.039Z,16.27
2023-03-15T07:50:32.332Z,14.38
2023-03-15T07:52:58.576Z,13.35
2023-03-15T07:55:25.337Z,13.70
2023-03-15T07:57:53.277Z,13.43
2023-03-15T08:00:20.030Z,13.95
2023-03-15T08:02:46.369Z,13.57
2023-03-15T08:05:12.607Z,13.68
2023-03-15T08:07:38.904Z,13.02
2023-03-15T08:10:06.117Z,12.85
2023-03-15T08:12:33.144Z,13.50
2023-03-15T08:14:59.405Z,13.43
2023-03-15T08:17:25.623Z,14.30
2023-03-15T08:19:51.824Z,14.70
2023-03-15T08:22:18.110Z,14.25
2023-03-15T08:24:45.653Z,14.93
2023-03-15T08:27:11.908Z,13.63
2023-03-15T08:29:38.166Z,15.52
2023-03-15T08:32:04.602Z,14.82
2023-03-15T08:34:33.520Z,13.40
2023-03-15T08:36:59.755Z,13.85
2023-03-15T08:39:25.946Z,13.98
2023-03-15T08:41:52.152Z,13.27
2023-03-15T08:44:18.522Z,13.13
2023-03-15T08:46:44.803Z,13.75
2023-03-15T08:49:11.059Z,13.93
2023-03-15T08:51:37.304Z,13.35
2023-03-15T08:54:03.904Z,14.18
2023-03-15T08:56:30.199Z,14.35
2023-03-15T08:58:56.453Z,13.45
2023-03-15T09:01:22.679Z,13.57
2023-03-15T09:03:50.573Z,14.02
2023-03-15T09:06:16.834Z,13.32
2023-03-15T09:08:43.037Z,13.68
2023-03-15T09:11:09.348Z,13.23
2023-03-15T09:13:35.626Z,11.90
2023-03-15T09:16:03.327Z,12.73
2023-03-15T09:18:30.001Z,12.85
2023-03-15T09:20:57.731Z,12.82
2023-03-15T09:23:24.188Z,12.63
2023-03-15T09:25:50.407Z,12.25
2023-03-15T09:28:16.712Z,11.30
2023-03-15T09:30:43.003Z,17.88
2023-03-15T09:33:09.658Z,14.27
2023-03-15T09:35:35.931Z,11.65
2023-03-15T09:38:03.739Z,11.73
2023-03-15T09:40:32.053Z,10.13
2023-03-15T09:43:07.278Z,10.77
2023-03-15T09:45:46.250Z,10.27
2023-03-15T09:48:19.504Z,9.75
2023-03-15T09:50:48.337Z,9.38
2023-03-15T09:53:18.763Z,8.98
2023-03-15T09:55:46.394Z,8.38
2023-03-15T09:58:21.381Z,7.30
2023-03-15T10:00:50.384Z,6.95
2023-03-15T10:03:23.039Z,5.97
2023-03-15T10:05:54.070Z,5.65
2023-03-15T10:08:20.951Z,5.30
2023-03-15T10:10:50.729Z,4.50
2023-03-15T10:13:25.969Z,4.40
2023-03-15T10:16:06.158Z,3.72
2023-03-15T10:18:38.022Z,3.90
2023-03-15T10:21:07.597Z,3.30
2023-03-15T10:23:49.184Z,3.72
2023-03-15T10:26:18.864Z,3.67
2023-03-15T10:28:45.482Z,3.55
2023-03-15T10:31:21.634Z,3.35
2023-03-15T10:33:52.384Z,3.50
2023-03-15T10:36:19.746Z,3.20
2023-03-15T10:38:46.159Z,3.95
2023-03-15T10:41:17.891Z,2.55
2023-03-15T10:43:57.475Z,3.42
2023-03-15T10:46:24.272Z,3.45
2023-03-15T10:49:00.878Z,3.40
2023-03-15T10:51:28.775Z,3.08
2023-03-15T10:54:16.464Z,3.17
2023-03-15T10:56:47.570Z,3.15
2023-03-15T10:59:21.019Z,3.38
2023-03-15T11:02:07.894Z,3.50
2023-03-15T11:04:34.516Z,2.85
2023-03-15T11:07:03.205Z,2.92
2023-03-15T11:09:42.843Z,3.10
2023-03-15T11:12:24.037Z,2.90
2023-03-15T11:14:51.074Z,3.10
2023-03-15T11:17:18.960Z,2.70
2023-03-15T11:20:13.003Z,2.00
2023-03-15T11:22:39.754Z,2.70
2023-03-15T11:25:12.192Z,2.10
2023-03-15T11:27:38.424Z,2.08
2023-03-15T11:30:04.825Z,2.80
2023-03-15T11:32:32.010Z,2.53
2023-03-15T11:35:21.066Z,2.20
2023-03-15T11:37:50.516Z,2.45
2023-03-15T11:40:23.679Z,1.90
2023-03-15T11:42:58.827Z,2.40
2023-03-15T11:45:36.412Z,1.70
2023-03-15T11:48:16.499Z,1.92
2023-03-15T11:50:42.761Z,1.90
2023-03-15T11:53:10.889Z,2.03
2023-03-15T11:55:37.446Z,1.67
2023-03-15T11:58:23.925Z,1.80
2023-03-15T12:00:51.196Z,2.28
2023-03-15T12:03:25.448Z,1.83
2023-03-15T12:05:52.988Z,2.45
2023-03-15T12:08:22.200Z,2.03
2023-03-15T12:10:49.540Z,1.83
2023-03-15T12:13:26.686Z,1.73
2023-03-15T12:15:53.141Z,1.80
2023-03-15T12:18:21.402Z,1.80
2023-03-15T12:21:20.413Z,1.70
2023-03-15T12:23:48.808Z,1.98
2023-03-15T12:26:24.135Z,1.75
2023-03-15T12:29:03.901Z,1.50
2023-03-15T12:31:43.102Z,1.73
2023-03-15T12:34:14.459Z,1.70
2023-03-15T12:39:06.784Z,1.90
2023-03-15T12:41:59.414Z,1.65
2023-03-15T12:44:31.805Z,1.90
2023-03-15T12:47:01.557Z,1.67
2023-03-15T12:49:32.083Z,2.15
2023-03-15T12:52:00.205Z,2.42
2023-03-15T12:54:41.520Z,2.15
2023-03-15T12:57:10.150Z,1.60
2023-03-15T12:59:56.410Z,2.05
2023-03-15T13:02:41.764Z,2.05
2023-03-15T13:05:08.779Z,2.05
2023-03-15T13:07:51.120Z,2.03
2023-03-15T13:10:38.992Z,1.90
2023-03-15T13:13:34.723Z,2.20
2023-03-15T13:16:02.028Z,1.83
2023-03-15T13:18:29.863Z,2.10
2023-03-15T13:21:14.360Z,1.95
2023-03-15T13:23:43.542Z,2.30
2023-03-15T13:26:28.715Z,2.00
2023-03-15T13:29:09.876Z,2.40
2023-03-15T13:31:37.032Z,2.30
2023-03-15T13:34:16.836Z,2.10
2023-03-15T13:36:47.340Z,2.08
2023-03-15T13:39:26.081Z,1.80
2023-03-15T13:42:02.261Z,2.45
2023-03-15T13:44:29.327Z,2.15
2023-03-15T13:46:56.121Z,1.77
2023-03-15T13:49:22.493Z,2.05
2023-03-15T13:51:50.023Z,2.13
2023-03-15T13:54:27.529Z,2.20
2023-03-15T13:56:55.406Z,1.88
2023-03-15T13:59:23.572Z,2.00
2023-03-15T14:01:53.962Z,2.30
2023-03-15T14:04:22.178Z,1.90
2023-03-15T14:06:49.007Z,1.80
2023-03-15T14:09:20.216Z,1.80
2023-03-15T14:11:59.393Z,2.42
2023-03-15T14:14:28.013Z,2.13
2023-03-15T14:17:05.261Z,1.95
2023-03-15T14:19:33.888Z,2.28
2023-03-15T14:22:01.694Z,1.75
2023-03-15T14:24:33.510Z,1.60
2023-03-15T14:27:01.201Z,2.30
2023-03-15T14:29:31.968Z,2.05
2023-03-15T14:32:03.109Z,2.20
2023-03-15T14:34:34.295Z,1.85
2023-03-15T14:37:04.224Z,1.83
2023-03-15T14:39:32.107Z,2.50
2023-03-15T14:41:58.317Z,1.83
2023-03-15T14:44:24.564Z,2.05
2023-03-15T14:46:50.947Z,2.10
2023-03-15T14:49:24.842Z,2.00
2023-03-15T14:51:56.949Z,1.55
2023-03-15T14:54:23.364Z,2.03
2023-03-15T14:56:49.564Z,1.88
2023-03-15T14:59:15.752Z,1.48
2023-03-15T15:01:46.821Z,1.90
2023-03-15T15:04:13.764Z,1.83
2023-03-15T15:06:40.312Z,2.03
2023-03-15T15:09:06.563Z,1.60
2023-03-15T15:11:33.073Z,1.65
2023-03-15T15:13:59.587Z,1.55
2023-03-15T15:16:25.880Z,1.60
2023-03-15T15:18:52.369Z,2.00
2023-03-15T15:21:21.515Z,1.67
2023-03-15T15:23:57.997Z,1.88
2023-03-15T15:26:28.906Z,2.53
2023-03-15T15:28:56.281Z,1.58
2023-03-15T15:31:23.795Z,2.00
2023-03-15T15:33:53.949Z,2.00
2023-03-15T15:36:39.084Z,1.65
2023-03-15T15:39:10.462Z,1.52
2023-03-15T15:41:36.671Z,1.77
2023-03-15T15:44:02.950Z,1.80
2023-03-15T15:46:29.398Z,1.60
2023-03-15T15:48:55.806Z,1.60
2023-03-15T15:51:29.655Z,1.73
2023-03-15T15:53:59.904Z,2.17
2023-03-15T15:56:31.586Z,2.30
2023-03-15T15:58:58.212Z,1.90
2023-03-15T16:01:24.481Z,1.77
2023-03-15T16:03:50.689Z,1.67
2023-03-15T16:06:18.356Z,1.80
2023-03-15T16:08:44.840Z,2.10
2023-03-15T16:11:12.622Z,2.05
2023-03-15T16:13:38.853Z,1.63
2023-03-15T16:16:05.185Z,1.52
2023-03-15T16:18:32.069Z,1.83
2023-03-15T16:20:59.022Z,1.73
2023-03-15T16:23:25.570Z,1.48
2023-03-15T16:25:55.354Z,2.25
2023-03-15T16:28:22.533Z,2.15
2023-03-15T16:30:48.824Z,1.80
2023-03-15T16:33:16.796Z,1.80
2023-03-15T16:35:43.893Z,2.13
2023-03-15T16:38:15.657Z,1.73
2023-03-15T16:40:43.092Z,1.80
2023-03-15T16:43:13.635Z,1.70
2023-03-15T16:45:40.217Z,1.60
2023-03-15T16:48:06.493Z,2.03
2023-03-15T16:50:33.407Z,2.13
2023-03-15T16:53:00.997Z,1.70
2023-03-15T16:55:29.088Z,2.20
2023-03-15T16:57:55.935Z,1.60
2023-03-15T17:00:22.374Z,1.90
2023-03-15T17:02:49.661Z,1.60
2023-03-15T17:05:18.821Z,1.98
2023-03-15T17:07:45.940Z,1.60
2023-03-15T17:10:21.701Z,1.83
2023-03-15T17:12:47.908Z,2.05
2023-03-15T17:15:14.499Z,1.70
2023-03-15T17:17:40.707Z,1.80
2023-03-15T17:20:10.810Z,2.10
2023-03-15T17:22:37.099Z,1.90
2023-03-15T17:25:03.553Z,1.73
2023-03-15T17:27:40.420Z,2.13
2023-03-15T17:30:15.983Z,1.92
2023-03-15T17:32:42.247Z,1.88
2023-03-15T17:35:09.439Z,2.00
2023-03-15T17:37:37.650Z,2.10
2023-03-15T17:40:12.316Z,1.60
2023-03-15T17:42:39.381Z,1.92
2023-03-15T17:45:15.685Z,2.47
2023-03-15T17:47:41.896Z,2.15
2023-03-15T17:50:08.588Z,2.10
2023-03-15T17:52:34.836Z,1.88
2023-03-15T17:55:01.061Z,1.95
2023-03-15T17:57:27.330Z,2.10
2023-03-15T17:59:53.703Z,1.90
2023-03-15T18:02:21.635Z,2.03
2023-03-15T18:04:47.851Z,2.33
2023-03-15T18:07:14.146Z,2.20
2023-03-15T18:09:40.523Z,1.92
2023-03-15T18:12:09.172Z,2.30
2023-03-15T18:14:37.087Z,1.90
2023-03-15T18:17:03.524Z,2.53
2023-03-15T18:19:29.787Z,2.33
2023-03-15T18:21:55.977Z,2.17
2023-03-15T18:24:22.177Z,1.95
2023-03-15T18:26:48.374Z,2.40
2023-03-15T18:29:14.582Z,2.00
2023-03-15T18:31:40.833Z,2.22
2023-03-15T18:34:07.070Z,2.20
2023-03-15T18:36:33.310Z,2.15
2023-03-15T18:38:59.670Z,1.67
2023-03-15T18:41:25.942Z,1.92
2023-03-15T18:43:52.343Z,2.00
2023-03-15T18:46:19.727Z,2.00
2023-03-15T18:48:46.486Z,2.70
2023-03-15T18:51:13.612Z,2.70
2023-03-15T18:53:40.900Z,3.72
2023-03-15T18:56:07.448Z,4.18
2023-03-15T18:58:33.668Z,3.65
2023-03-15T19:00:59.932Z,3.28
2023-03-15T19:03:26.231Z,2.92
2023-03-15T19:05:53.412Z,3.67
2023-03-15T19:08:19.653Z,4.72
2023-03-15T19:10:47.194Z,4.40
2023-03-15T19:13:13.404Z,3.53
2023-03-15T19:15:39.681Z,3.30
2023-03-15T19:18:06.055Z,3.90
2023-03-15T19:20:32.297Z,3.22
2023-03-15T19:22:58.501Z,3.50
2023-03-15T19:25:24.873Z,3.30
2023-03-15T19:27:51.179Z,3.40
2023-03-15T19:30:20.769Z,3.20
2023-03-15T19:32:48.035Z,4.25
2023-03-15T19:35:14.514Z,3.80
2023-03-15T19:37:42.367Z,4.53
2023-03-15T19:40:09.431Z,3.72
2023-03-15T19:42:35.670Z,4.90
2023-03-15T19:45:02.146Z,5.22
2023-03-15T19:47:28.337Z,5.88
2023-03-15T19:49:55.029Z,5.97
2023-03-15T19:52:21.360Z,5.85
2023-03-15T19:54:47.878Z,5.32
2023-03-15T19:57:14.269Z,4.80
2023-03-15T19:59:41.500Z,4.65
2023-03-15T20:02:10.238Z,5.50
2023-03-15T20:04:36.635Z,5.03
2023-03-15T20:07:03.208Z,4.45
2023-03-15T20:09:29.452Z,5.10
2023-03-15T20:11:55.714Z,5.70
2023-03-15T20:14:22.601Z,5.18
2023-03-15T20:16:49.003Z,5.30
2023-03-15T20:19:15.204Z,5.15
2023-03-15T20:21:43.718Z,5.15
2023-03-15T20:24:10.093Z,5.07
2023-03-15T20:26:36.296Z,5.25
2023-03-15T20:29:03.209Z,5.18
2023-03-15T20:31:29.647Z,5.57
2023-03-15T20:33:55.917Z,4.70
2023-03-15T20:36:22.237Z,5.00
2023-03-15T20:38:48.435Z,4.80
2023-03-15T20:41:15.033Z,4.85
2023-03-15T20:43:41.751Z,4.72
2023-03-15T20:46:10.020Z,4.65
2023-03-15T20:48:36.363Z,4.80
2023-03-15T20:51:05.794Z,5.18
2023-03-15T20:53:33.211Z,4.60
2023-03-15T20:55:59.713Z,5.07
2023-03-15T20:58:26.079Z,5.10
2023-03-15T21:01:02.371Z,5.68
2023-03-15T21:03:28.648Z,5.05
2023-03-15T21:05:54.871Z,5.43
2023-03-15T21:08:21.073Z,5.53
2023-03-15T21:10:47.269Z,5.40
2023-03-15T21:13:13.499Z,5.80
2023-03-15T21:15:46.246Z,5.60
2023-03-15T21:18:13.112Z,6.65
2023-03-15T21:20:39.377Z,6.00
2023-03-15T21:23:05.628Z,6.32
2023-03-15T21:25:32.509Z,5.65
2023-03-15T21:27:59.138Z,6.32
2023-03-15T21:30:25.782Z,6.32
2023-03-15T21:32:52.240Z,6.47
2023-03-15T21:35:19.081Z,6.47
2023-03-15T21:37:45.346Z,7.03
2023-03-15T21:40:12.326Z,6.85
2023-03-15T21:42:39.123Z,7.20
2023-03-15T21:45:07.213Z,7.03
2023-03-15T21:47:33.533Z,7.53
2023-03-15T21:50:00.314Z,7.10
2023-03-15T21:52:26.527Z,6.22
2023-03-15T21:54:53.782Z,7.88
2023-03-15T21:57:22.789Z,6.90
2023-03-15T21:59:49.385Z,7.20
2023-03-15T22:02:16.598Z,7.60
2023-03-15T22:04:43.233Z,7.35
2023-03-15T22:07:10.924Z,7.75
2023-03-15T22:09:37.966Z,7.72
2023-03-15T22:12:04.820Z,13.88
2023-03-15T22:14:31.135Z,9.02
2023-03-15T22:16:57.433Z,8.57
2023-03-15T22:19:23.704Z,7.40
2023-03-15T22:21:49.945Z,7.95
2023-03-15T22:24:16.281Z,7.13
2023-03-15T22:26:45.286Z,7.47
2023-03-15T22:29:11.852Z,7.43
2023-03-15T22:31:38.123Z,7.07
2023-03-15T22:34:05.082Z,7.38
2023-03-15T22:36:33.685Z,6.95
2023-03-15T22:39:00.850Z,6.88
2023-03-15T22:41:27.260Z,7.05
2023-03-15T22:43:54.770Z,7.72
2023-03-15T22:46:21.318Z,6.72
2023-03-15T22:48:47.573Z,7.20
2023-03-15T22:51:14.780Z,6.75
2023-03-15T22:53:41.003Z,7.03
2023-03-15T22:56:07.415Z,6.90
2023-03-15T22:58:33.938Z,7.10
2023-03-15T23:01:00.150Z,7.20
2023-03-15T23:03:26.626Z,6.40
2023-03-15T23:05:53.417Z,6.70
2023-03-15T23:08:19.724Z,6.57
2023-03-15T23:10:45.980Z,7.63
2023-03-15T23:13:12.172Z,7.32
2023-03-15T23:15:38.459Z,7.43
2023-03-15T23:18:05.458Z,7.53
2023-03-15T23:20:32.009Z,7.25
2023-03-15T23:22:59.383Z,7.70
2023-03-15T23:25:29.155Z,7.35
2023-03-15T23:27:55.993Z,7.47
2023-03-15T23:30:22.266Z,7.07
2023-03-15T23:32:48.974Z,7.20
2023-03-15T23:35:15.635Z,7.32
2023-03-15T23:37:42.777Z,7.32
2023-03-15T23:40:15.051Z,7.43
2023-03-15T23:42:42.303Z,7.30
2023-03-15T23:45:09.444Z,7.30
2023-03-15T23:47:35.665Z,7.88
2023-03-15T23:50:02.324Z,7.10
2023-03-15T23:52:28.834Z,7.50
2023-03-15T23:54:55.048Z,6.93
2023-03-15T23:57:21.277Z,7.05
2023-03-15T23:59:47.721Z,7.22
